Time;durP1;ratioP1;P1;durP2;ratioP2;P2;SDS_P1;SDS_P2;PMS_P1;PMS_P2;Temp;Humidity;BMP_temperature;BMP_pressure;BME280_temperature;BME280_humidity;BME280_pressure;Samples;Min_cycle;Max_cycle;Signal;HPM_P1;HPM_P2
2021/03/10 00:00:11;;;;;;;13.82;5.97;;;5.40;61.90;;;;;;4862912;29;20036;-86
2021/03/10 00:06:00;;;;;;;13.52;6.40;;;5.40;61.70;;;;;;4862907;29;20033;-85
2021/03/10 00:11:48;;;;;;;12.55;5.45;;;5.50;62.00;;;;;;4862755;29;20059;-85
2021/03/10 00:17:38;;;;;;;15.23;6.22;;;5.40;61.60;;;;;;4863117;29;20092;-85
2021/03/10 00:23:26;;;;;;;12.25;5.85;;;5.40;61.90;;;;;;4862696;29;20077;-85
2021/03/10 00:29:15;;;;;;;15.10;6.72;;;5.40;62.10;;;;;;4862300;29;20151;-87
2021/03/10 00:35:06;;;;;;;16.13;6.85;;;5.40;61.90;;;;;;4862547;29;20447;-87
2021/03/10 00:40:55;;;;;;;13.88;6.63;;;5.30;61.90;;;;;;4862461;29;20036;-86
2021/03/10 00:50:36;;;;;;;12.73;6.78;;;5.30;62.00;;;;;;4861980;29;20460;-86
2021/03/10 00:56:25;;;;;;;14.82;6.07;;;5.30;62.20;;;;;;4861660;29;20073;-85
2021/03/10 01:02:13;;;;;;;13.82;6.75;;;5.30;62.20;;;;;;4861618;29;20036;-86
2021/03/10 01:08:02;;;;;;;14.20;5.90;;;5.40;62.20;;;;;;4861616;29;20037;-85
2021/03/10 01:13:52;;;;;;;14.73;6.53;;;5.30;61.80;;;;;;4861588;29;20395;-86
2021/03/10 01:19:41;;;;;;;16.20;7.18;;;5.30;61.90;;;;;;4861834;29;20485;-87
2021/03/10 01:25:30;;;;;;;13.82;6.57;;;5.20;62.20;;;;;;4861585;29;20066;-87
2021/03/10 01:31:19;;;;;;;15.82;6.43;;;5.20;62.20;;;;;;4861458;29;20133;-87
2021/03/10 01:37:07;;;;;;;14.27;7.03;;;5.20;62.30;;;;;;4861584;29;20060;-87
2021/03/10 01:43:03;;;;;;;14.77;7.85;;;5.20;62.40;;;;;;4861491;29;20378;-84
2021/03/10 01:52:47;;;;;;;14.52;6.97;;;5.20;62.60;;;;;;4861596;29;20117;-84
2021/03/10 01:58:37;;;;;;;12.95;6.43;;;5.10;62.40;;;;;;4865120;29;20068;-85
2021/03/10 02:04:26;;;;;;;13.23;6.15;;;5.10;62.30;;;;;;4864919;29;20040;-85
2021/03/10 02:10:35;;;;;;;13.38;6.70;;;5.10;62.40;;;;;;4865192;29;20098;-85
2021/03/10 02:16:41;;;;;;;14.85;6.78;;;5.20;62.70;;;;;;4865311;29;20039;-85
2021/03/10 02:22:49;;;;;;;16.02;7.80;;;5.20;62.70;;;;;;4864928;29;20100;-86
2021/03/10 02:28:38;;;;;;;14.68;6.85;;;5.20;62.50;;;;;;4864728;29;20037;-86
2021/03/10 02:34:28;;;;;;;15.85;7.45;;;5.10;62.40;;;;;;4864942;29;20062;-86
2021/03/10 02:40:18;;;;;;;15.65;7.15;;;5.10;62.50;;;;;;4864782;29;20076;-85
2021/03/10 02:46:08;;;;;;;14.95;7.22;;;5.10;62.60;;;;;;4864532;29;20181;-85
2021/03/10 02:55:58;;;;;;;8.77;4.28;;;5.10;62.60;;;;;;4864315;29;20040;-85
2021/03/10 03:01:46;;;;;;;9.73;4.88;;;5.00;62.60;;;;;;4864763;29;20032;-87
2021/03/10 03:07:38;;;;;;;13.63;5.45;;;5.10;62.90;;;;;;4865661;29;20112;-87
2021/03/10 03:13:27;;;;;;;15.52;7.13;;;5.10;62.70;;;;;;4863796;29;20036;-86
2021/03/10 03:19:16;;;;;;;17.58;8.18;;;5.00;62.30;;;;;;4863746;29;20086;-86
2021/03/10 03:25:04;;;;;;;16.52;8.25;;;4.80;62.30;;;;;;4863695;29;20044;-86
2021/03/10 03:30:54;;;;;;;16.60;8.90;;;4.70;62.30;;;;;;4863421;29;20080;-86
2021/03/10 03:36:43;;;;;;;16.08;7.45;;;4.70;62.80;;;;;;4863315;29;20077;-85
2021/03/10 03:42:31;;;;;;;16.80;7.57;;;4.70;63.00;;;;;;4863229;29;20097;-87
2021/03/10 03:48:21;;;;;;;15.73;7.85;;;4.80;63.40;;;;;;4863189;29;20538;-87
2021/03/10 03:58:04;;;;;;;17.13;9.32;;;4.90;63.30;;;;;;4863085;29;20096;-86
2021/03/10 04:03:52;;;;;;;18.45;9.30;;;4.90;63.10;;;;;;4863012;29;20036;-87
2021/03/10 04:09:40;;;;;;;19.90;9.93;;;4.80;63.20;;;;;;4862863;29;20505;-88
2021/03/10 04:15:30;;;;;;;22.02;10.20;;;4.80;63.40;;;;;;4862776;29;20048;-87
2021/03/10 04:21:19;;;;;;;23.20;10.52;;;4.90;63.50;;;;;;4862521;29;20101;-86
2021/03/10 04:27:08;;;;;;;17.48;9.63;;;4.90;63.60;;;;;;4862309;29;20180;-86
2021/03/10 04:32:56;;;;;;;21.25;10.15;;;4.90;63.60;;;;;;4862320;29;20112;-85
2021/03/10 04:38:45;;;;;;;19.92;9.73;;;4.90;63.60;;;;;;4861920;29;20032;-85
2021/03/10 04:44:33;;;;;;;20.77;10.73;;;4.90;63.80;;;;;;4862052;29;20078;-85
2021/03/10 04:50:22;;;;;;;23.20;10.48;;;4.90;63.90;;;;;;4861682;29;20052;-87
2021/03/10 05:00:08;;;;;;;19.90;9.77;;;4.90;63.60;;;;;;4861994;29;20098;-87
2021/03/10 05:05:56;;;;;;;21.77;10.73;;;4.90;63.80;;;;;;4862008;29;20589;-87
2021/03/10 05:11:44;;;;;;;18.45;9.88;;;4.90;63.90;;;;;;4862204;29;20513;-87
2021/03/10 05:17:34;;;;;;;21.70;10.70;;;4.90;64.20;;;;;;4861926;29;20097;-86
2021/03/10 05:23:22;;;;;;;17.98;9.50;;;4.90;64.00;;;;;;4862177;29;20062;-88
2021/03/10 05:29:12;;;;;;;20.42;10.45;;;4.90;64.10;;;;;;4861821;29;20076;-88
2021/03/10 05:34:59;;;;;;;18.85;10.50;;;4.80;64.00;;;;;;4865463;29;20073;-87
2021/03/10 05:40:48;;;;;;;23.08;11.45;;;4.80;64.00;;;;;;4865659;29;20038;-87
2021/03/10 05:46:37;;;;;;;21.45;9.75;;;4.70;64.00;;;;;;4868409;29;20439;-88
2021/03/10 05:52:27;;;;;;;20.00;10.32;;;4.70;64.10;;;;;;4865395;29;20076;-88
2021/03/10 06:02:09;;;;;;;21.58;10.48;;;4.80;64.30;;;;;;4868142;29;20072;-87
2021/03/10 06:08:06;;;;;;;19.73;10.57;;;4.80;64.50;;;;;;4865526;29;20044;-87
2021/03/10 06:13:55;;;;;;;19.70;9.65;;;4.80;64.40;;;;;;4865724;29;20501;-88
2021/03/10 06:19:45;;;;;;;20.27;10.18;;;4.80;64.80;;;;;;4864356;29;20390;-82
2021/03/10 06:25:37;;;;;;;21.02;9.27;;;4.90;64.90;;;;;;4864581;29;20040;-83
2021/03/10 06:31:31;;;;;;;23.10;11.10;;;5.00;64.80;;;;;;4864450;29;20094;-84
2021/03/10 06:37:31;;;;;;;27.48;13.02;;;5.10;64.90;;;;;;4864676;29;20054;-83
2021/03/10 06:43:32;;;;;;;24.63;12.52;;;5.10;65.20;;;;;;4863052;29;20136;-82
2021/03/10 06:49:20;;;;;;;21.55;10.73;;;5.20;65.10;;;;;;4864189;29;20485;-82
2021/03/10 06:55:10;;;;;;;20.45;10.40;;;5.20;65.00;;;;;;4864190;29;20542;-81
2021/03/10 07:05:00;;;;;;;21.02;10.45;;;5.30;65.70;;;;;;4863955;29;20204;-81
2021/03/10 07:10:49;;;;;;;20.95;10.65;;;5.40;65.50;;;;;;4863633;29;20065;-82
2021/03/10 07:16:38;;;;;;;22.08;10.95;;;5.50;65.70;;;;;;4863896;29;20031;-82
2021/03/10 07:22:38;;;;;;;24.40;11.82;;;5.70;65.40;;;;;;4863529;29;20064;-82
2021/03/10 07:28:31;;;;;;;22.50;11.57;;;5.70;65.70;;;;;;4863656;29;20166;-82
2021/03/10 07:34:25;;;;;;;27.33;13.90;;;5.80;65.60;;;;;;4863377;29;20110;-81
2021/03/10 07:40:16;;;;;;;24.02;13.00;;;5.90;65.80;;;;;;4863293;29;20052;-81
2021/03/10 07:46:16;;;;;;;24.27;11.48;;;6.10;65.90;;;;;;4863213;29;20085;-81
2021/03/10 07:52:13;;;;;;;25.23;12.18;;;6.20;66.20;;;;;;4862985;29;20081;-82
2021/03/10 07:58:01;;;;;;;24.33;11.13;;;6.40;66.30;;;;;;4862889;29;20481;-81
2021/03/10 08:08:04;;;;;;;28.27;13.45;;;6.80;66.40;;;;;;4862859;29;20037;-82
2021/03/10 08:14:00;;;;;;;26.98;11.90;;;7.00;66.50;;;;;;4862719;29;20036;-83
2021/03/10 08:20:05;;;;;;;26.77;11.55;;;7.40;67.40;;;;;;4862354;29;20040;-83
2021/03/10 08:25:54;;;;;;;17.13;8.02;;;7.60;65.90;;;;;;4862598;29;20036;-83
2021/03/10 08:31:44;;;;;;;23.73;11.85;;;7.50;66.40;;;;;;4862396;29;20048;-82
2021/03/10 08:37:32;;;;;;;22.52;10.65;;;7.70;66.30;;;;;;4862342;29;20037;-81
2021/03/10 08:43:21;;;;;;;23.23;11.75;;;7.90;66.90;;;;;;4861991;29;20063;-83
2021/03/10 08:49:21;;;;;;;25.65;11.82;;;8.30;67.20;;;;;;4861862;29;20093;-82
2021/03/10 08:55:10;;;;;;;23.98;12.38;;;8.60;66.90;;;;;;4861888;29;20068;-81
2021/03/10 09:00:59;;;;;;;23.33;10.95;;;8.50;65.90;;;;;;4861935;29;20534;-82
2021/03/10 09:10:51;;;;;;;19.30;9.88;;;9.00;67.70;;;;;;4863340;29;20067;-82
2021/03/10 09:16:59;;;;;;;23.88;12.18;;;9.30;67.00;;;;;;4861526;29;20044;-82
2021/03/10 09:22:48;;;;;;;23.77;10.98;;;9.80;68.00;;;;;;4861368;29;20077;-82
2021/03/10 09:28:37;;;;;;;19.13;10.05;;;10.20;67.50;;;;;;4861337;29;20041;-83
2021/03/10 09:34:25;;;;;;;18.63;9.23;;;10.30;66.90;;;;;;4861675;29;20060;-82
2021/03/10 09:40:15;;;;;;;20.63;10.88;;;10.10;65.60;;;;;;4861563;29;20057;-84
2021/03/10 09:46:08;;;;;;;13.65;7.05;;;10.00;66.00;;;;;;4861362;29;20055;-82
2021/03/10 09:51:57;;;;;;;17.02;7.70;;;10.40;67.20;;;;;;4861263;29;20060;-82
2021/03/10 09:57:45;;;;;;;15.48;7.72;;;10.30;65.20;;;;;;4861612;29;20056;-82
2021/03/10 10:03:34;;;;;;;12.38;6.18;;;9.90;64.40;;;;;;4861136;29;20505;-82
2021/03/10 10:13:22;;;;;;;11.85;5.60;;;9.80;65.30;;;;;;4861456;29;20044;-84
2021/03/10 10:19:10;;;;;;;10.30;4.72;;;10.00;65.80;;;;;;4864597;29;20041;-85
2021/03/10 10:24:59;;;;;;;15.27;7.50;;;10.00;64.40;;;;;;4864323;29;20048;-84
2021/03/10 10:30:46;;;;;;;17.08;8.07;;;9.90;65.40;;;;;;4864136;29;20053;-83
2021/03/10 10:36:34;;;;;;;12.73;5.25;;;10.30;64.90;;;;;;4864335;29;20054;-82
2021/03/10 10:42:23;;;;;;;18.58;8.43;;;10.70;65.60;;;;;;4864573;29;20044;-82
2021/03/10 10:48:12;;;;;;;15.45;7.57;;;10.70;64.10;;;;;;4864499;29;20098;-82
2021/03/10 10:54:00;;;;;;;14.82;5.85;;;10.60;64.00;;;;;;4864940;29;20086;-84
2021/03/10 10:59:49;;;;;;;17.10;7.13;;;10.40;62.90;;;;;;4864644;29;20045;-84
2021/03/10 11:05:38;;;;;;;8.93;4.22;;;10.20;64.10;;;;;;4863770;29;20044;-83
2021/03/10 11:15:19;;;;;;;7.82;3.42;;;10.30;64.00;;;;;;4863956;29;20378;-83
2021/03/10 11:21:08;;;;;;;15.02;6.40;;;10.20;63.00;;;;;;4863485;29;20475;-83
2021/03/10 11:26:56;;;;;;;13.52;5.30;;;10.30;64.30;;;;;;4863634;29;20518;-84
2021/03/10 11:32:44;;;;;;;13.02;4.90;;;10.60;63.80;;;;;;4863193;29;20072;-83
2021/03/10 11:38:32;;;;;;;13.38;5.88;;;10.50;63.30;;;;;;4863216;29;20076;-85
2021/03/10 11:44:20;;;;;;;13.90;6.30;;;11.10;65.10;;;;;;4863087;29;20077;-83
2021/03/10 11:50:09;;;;;;;8.73;3.53;;;11.90;65.60;;;;;;4863056;29;20105;-83
2021/03/10 11:56:07;;;;;;;12.20;6.38;;;12.40;64.20;;;;;;4863054;29;20566;-85
2021/03/10 12:01:55;;;;;;;13.95;6.20;;;12.40;63.20;;;;;;4863138;29;20090;-82
2021/03/10 12:07:44;;;;;;;12.55;5.43;;;12.30;62.60;;;;;;4863097;29;20120;-83
2021/03/10 12:17:28;;;;;;;16.38;7.00;;;11.90;63.70;;;;;;4862625;29;20052;-83
2021/03/10 12:23:17;;;;;;;12.43;5.95;;;12.10;62.50;;;;;;4862385;29;20097;-85
2021/03/10 12:29:06;;;;;;;12.77;6.15;;;12.30;64.10;;;;;;4862472;29;20136;-82
2021/03/10 12:34:56;;;;;;;12.18;5.65;;;12.80;63.20;;;;;;4861904;29;20036;-82
2021/03/10 12:40:44;;;;;;;11.90;6.35;;;12.70;62.00;;;;;;4862028;29;20121;-83
2021/03/10 12:46:34;;;;;;;13.73;6.03;;;12.20;60.30;;;;;;4861933;29;20128;-83
2021/03/10 12:52:23;;;;;;;13.23;6.63;;;11.60;61.30;;;;;;4861724;29;20053;-82
2021/03/10 12:58:12;;;;;;;13.82;6.40;;;12.10;64.10;;;;;;4861640;29;20059;-83
2021/03/10 13:04:00;;;;;;;12.90;5.97;;;12.80;62.50;;;;;;4861808;29;20048;-82
2021/03/10 13:09:49;;;;;;;12.60;6.28;;;13.00;62.80;;;;;;4861452;29;20056;-82
2021/03/10 13:19:30;;;;;;;14.23;5.78;;;13.60;62.20;;;;;;4861650;29;20052;-82
2021/03/10 13:25:19;;;;;;;12.05;6.20;;;13.80;64.00;;;;;;4861529;29;20109;-82
2021/03/10 13:31:08;;;;;;;13.50;5.93;;;15.00;62.30;;;;;;4861379;29;20045;-81
2021/03/10 13:36:56;;;;;;;10.68;5.28;;;15.00;61.00;;;;;;4861323;29;20392;-81
2021/03/10 13:42:44;;;;;;;14.57;6.53;;;14.60;60.10;;;;;;4861425;29;20064;-82
2021/03/10 13:48:33;;;;;;;13.25;6.10;;;14.20;60.30;;;;;;4861677;29;20040;-83
2021/03/10 13:54:21;;;;;;;10.63;5.20;;;14.00;60.00;;;;;;4864994;29;20089;-83
2021/03/10 14:00:10;;;;;;;7.15;3.25;;;13.40;59.70;;;;;;4864863;29;20051;-83
2021/03/10 14:05:59;;;;;;;13.30;6.40;;;13.10;60.50;;;;;;4865071;29;20053;-83
2021/03/10 14:11:47;;;;;;;14.77;6.75;;;13.30;60.60;;;;;;4864871;29;20043;-84
2021/03/10 14:21:30;;;;;;;12.77;6.32;;;14.00;59.50;;;;;;4864703;29;20458;-82
2021/03/10 14:27:18;;;;;;;13.68;6.05;;;14.30;63.60;;;;;;4864744;29;20053;-80
2021/03/10 14:33:07;;;;;;;10.77;5.00;;;14.60;59.70;;;;;;4864311;29;20097;-81
2021/03/10 14:38:55;;;;;;;13.32;5.88;;;14.00;58.60;;;;;;4864547;29;20037;-81
2021/03/10 14:44:44;;;;;;;12.63;6.32;;;13.90;60.20;;;;;;4864204;29;20032;-80
2021/03/10 14:50:31;;;;;;;10.90;5.40;;;15.40;64.50;;;;;;4864121;29;20044;-82
2021/03/10 14:56:19;;;;;;;11.90;5.55;;;15.30;59.20;;;;;;4864242;29;20045;-81
2021/03/10 15:02:08;;;;;;;12.02;5.45;;;14.80;58.70;;;;;;4863877;29;20056;-81
2021/03/10 15:07:57;;;;;;;12.27;6.10;;;14.30;58.50;;;;;;4863767;29;20118;-82
2021/03/10 15:13:45;;;;;;;9.50;3.80;;;14.00;58.00;;;;;;4863745;29;20501;-82
2021/03/10 15:23:27;;;;;;;13.13;6.00;;;13.80;57.80;;;;;;4862756;29;20049;-81
2021/03/10 15:29:15;;;;;;;11.55;5.80;;;13.20;57.40;;;;;;4862486;29;20040;-82
2021/03/10 15:35:05;;;;;;;11.48;5.68;;;13.10;58.30;;;;;;4862686;29;20036;-82
2021/03/10 15:40:53;;;;;;;12.38;6.15;;;12.90;57.90;;;;;;4862370;29;20089;-81
2021/03/10 15:46:42;;;;;;;13.85;6.90;;;12.90;58.70;;;;;;4862153;29;20040;-81
2021/03/10 15:52:30;;;;;;;13.55;6.80;;;13.00;57.80;;;;;;4861998;29;20045;-86
2021/03/10 15:58:18;;;;;;;14.95;7.28;;;12.70;57.70;;;;;;4862154;29;20432;-82
2021/03/10 16:04:06;;;;;;;13.90;7.38;;;12.60;57.80;;;;;;4861972;29;20542;-83
2021/03/10 16:09:55;;;;;;;15.38;7.85;;;12.40;57.50;;;;;;4861902;29;20574;-83
2021/03/10 16:15:44;;;;;;;15.90;7.43;;;12.20;57.50;;;;;;4861072;29;20037;-81
2021/03/10 16:25:25;;;;;;;13.45;6.28;;;11.80;56.90;;;;;;4862478;29;20041;-81
2021/03/10 16:31:13;;;;;;;13.75;7.72;;;11.50;56.90;;;;;;4862079;29;20145;-81
2021/03/10 16:37:02;;;;;;;13.25;6.50;;;11.20;57.00;;;;;;4862035;29;20399;-81
2021/03/10 16:42:50;;;;;;;14.38;6.47;;;10.90;56.80;;;;;;4862367;29;20048;-81
2021/03/10 16:48:39;;;;;;;14.27;6.60;;;10.60;56.80;;;;;;4861850;29;20043;-81
2021/03/10 16:54:28;;;;;;;15.02;6.20;;;10.30;56.80;;;;;;4861906;29;20041;-81
2021/03/10 17:00:16;;;;;;;15.18;6.70;;;10.20;57.00;;;;;;4862055;29;20036;-81
2021/03/10 17:06:05;;;;;;;13.35;6.60;;;9.90;56.60;;;;;;4861670;29;20471;-81
2021/03/10 17:11:53;;;;;;;14.20;6.53;;;9.60;56.50;;;;;;4861513;29;20049;-81
2021/03/10 17:17:42;;;;;;;13.48;6.82;;;9.30;56.50;;;;;;4861861;29;20101;-80
2021/03/10 17:27:25;;;;;;;15.38;6.97;;;8.90;56.30;;;;;;4860898;29;20044;-80
2021/03/10 17:33:13;;;;;;;14.60;7.05;;;8.50;56.30;;;;;;4867293;29;20064;-90
2021/03/10 17:39:01;;;;;;;15.50;6.95;;;8.30;56.40;;;;;;4861577;29;20451;-84
2021/03/10 17:44:49;;;;;;;18.67;7.65;;;8.10;56.30;;;;;;4861327;29;20041;-87
2021/03/10 17:50:40;;;;;;;14.00;6.60;;;7.90;56.40;;;;;;4861915;29;20105;-85
2021/03/10 17:56:28;;;;;;;15.55;6.70;;;7.70;56.60;;;;;;4861993;29;20047;-84
2021/03/10 18:02:16;;;;;;;13.82;6.68;;;7.50;56.40;;;;;;4861512;29;20032;-84
2021/03/10 18:08:05;;;;;;;13.90;6.65;;;7.30;56.40;;;;;;4861495;29;20387;-84
2021/03/10 18:13:53;;;;;;;16.27;7.40;;;7.20;56.50;;;;;;4861112;29;20045;-84
2021/03/10 18:19:42;;;;;;;17.15;7.60;;;7.00;56.40;;;;;;4861114;29;20439;-84
2021/03/10 18:29:23;;;;;;;17.40;7.32;;;6.80;56.50;;;;;;4861239;29;20509;-83
2021/03/10 18:35:13;;;;;;;15.63;6.93;;;6.70;56.80;;;;;;4861269;29;20045;-83
2021/03/10 18:41:01;;;;;;;17.38;7.00;;;6.60;56.70;;;;;;4864380;29;20053;-84
2021/03/10 18:46:50;;;;;;;20.98;8.10;;;6.50;56.80;;;;;;4864413;29;20040;-83
2021/03/10 18:52:39;;;;;;;19.45;8.35;;;6.40;56.60;;;;;;4864279;29;20049;-83
2021/03/10 18:58:27;;;;;;;16.52;7.85;;;6.30;56.70;;;;;;4863831;29;20139;-84
2021/03/10 19:04:15;;;;;;;20.48;7.80;;;6.30;56.70;;;;;;4863879;29;20101;-83
2021/03/10 19:10:10;;;;;;;21.70;10.50;;;6.10;56.70;;;;;;4863674;29;20036;-83
2021/03/10 19:16:01;;;;;;;21.73;9.02;;;5.90;56.60;;;;;;4863596;29;20048;-83
2021/03/10 19:22:33;;;;;;;20.27;9.85;;;5.90;56.60;;;;;;4863341;29;20082;-83
2021/03/10 19:32:32;;;;;;;22.98;9.18;;;5.60;56.50;;;;;;4863143;29;20418;-83
2021/03/10 19:38:47;;;;;;;19.10;9.48;;;5.40;56.60;;;;;;4862828;29;20537;-83
2021/03/10 19:44:36;;;;;;;19.75;9.60;;;5.30;56.70;;;;;;4862928;29;20036;-82
2021/03/10 19:50:25;;;;;;;21.80;10.57;;;5.20;56.70;;;;;;4862167;29;20117;-82
2021/03/10 19:56:14;;;;;;;19.67;10.45;;;5.10;56.70;;;;;;4867440;29;20044;-83
2021/03/10 20:02:03;;;;;;;19.33;9.65;;;5.00;56.80;;;;;;4864961;29;20048;-83
2021/03/10 20:07:54;;;;;;;19.55;10.48;;;4.90;56.70;;;;;;4862818;29;20537;-85
2021/03/10 20:13:49;;;;;;;20.42;10.50;;;4.80;56.70;;;;;;4862688;29;20049;-84
2021/03/10 20:19:40;;;;;;;23.58;11.00;;;4.70;57.10;;;;;;4862556;29;20036;-84
2021/03/10 20:25:28;;;;;;;18.35;10.20;;;4.70;56.90;;;;;;4863678;29;20132;-89
2021/03/10 20:35:18;;;;;;;21.08;10.80;;;4.50;56.70;;;;;;4862443;29;20130;-85
2021/03/10 20:41:07;;;;;;;18.23;10.00;;;4.30;56.80;;;;;;4861979;29;20044;-83
2021/03/10 20:46:56;;;;;;;19.13;10.55;;;4.30;56.90;;;;;;4861972;29;20527;-85
2021/03/10 20:52:46;;;;;;;18.85;9.93;;;4.30;57.00;;;;;;4862235;29;20109;-84
2021/03/10 20:58:35;;;;;;;18.13;9.65;;;4.30;57.20;;;;;;4861939;29;20037;-84
2021/03/10 21:04:23;;;;;;;19.45;8.73;;;4.30;57.30;;;;;;4861947;29;20043;-84
2021/03/10 21:10:14;;;;;;;19.42;9.25;;;4.30;57.30;;;;;;4861860;29;20505;-84
2021/03/10 21:16:01;;;;;;;17.83;8.75;;;4.30;57.30;;;;;;4861714;29;20128;-84
2021/03/10 21:21:50;;;;;;;18.23;8.38;;;4.40;57.30;;;;;;4862689;29;20169;-84
2021/03/10 21:27:39;;;;;;;18.92;9.52;;;4.40;57.40;;;;;;4861879;29;20036;-84
2021/03/10 21:37:22;;;;;;;17.90;8.68;;;4.40;57.60;;;;;;4861719;29;20057;-83
2021/03/10 21:43:11;;;;;;;18.30;8.68;;;4.40;57.50;;;;;;4861800;29;20401;-83
2021/03/10 21:48:59;;;;;;;19.73;9.00;;;4.40;57.50;;;;;;4861780;29;20045;-83
2021/03/10 21:54:47;;;;;;;16.05;7.85;;;4.40;57.50;;;;;;4861795;29;20555;-83
2021/03/10 22:00:35;;;;;;;16.02;7.65;;;4.40;57.40;;;;;;4861828;29;20041;-82
2021/03/10 22:06:26;;;;;;;17.55;8.93;;;4.30;57.40;;;;;;4861594;29;20054;-84
2021/03/10 22:12:20;;;;;;;18.50;9.73;;;4.20;57.30;;;;;;4861740;29;20056;-84
2021/03/10 22:18:09;;;;;;;22.50;10.48;;;4.20;57.40;;;;;;4865195;29;20093;-84
2021/03/10 22:23:58;;;;;;;20.85;9.75;;;4.10;57.30;;;;;;4865016;29;20509;-82
2021/03/10 22:29:55;;;;;;;19.73;8.52;;;4.00;57.30;;;;;;4865003;29;20044;-82
2021/03/10 22:39:38;;;;;;;20.35;9.02;;;3.90;57.50;;;;;;4883541;29;20064;-82
2021/03/10 22:45:30;;;;;;;18.30;8.80;;;3.90;57.70;;;;;;4883551;29;20111;-84
2021/03/10 22:51:19;;;;;;;18.38;8.65;;;3.90;57.70;;;;;;4882562;29;20064;-83
2021/03/10 22:57:08;;;;;;;18.63;7.97;;;3.90;57.80;;;;;;4882648;29;20084;-84
2021/03/10 23:02:57;;;;;;;18.38;7.82;;;4.00;58.00;;;;;;4882359;29;20112;-83
2021/03/10 23:08:45;;;;;;;20.08;7.45;;;4.10;58.10;;;;;;4882580;29;20089;-83
2021/03/10 23:14:34;;;;;;;15.00;7.00;;;4.10;58.00;;;;;;4882216;29;20048;-83
2021/03/10 23:20:26;;;;;;;17.95;7.20;;;4.10;58.00;;;;;;4882253;29;20047;-83
2021/03/10 23:26:16;;;;;;;16.48;7.45;;;4.20;58.10;;;;;;4881004;29;20077;-84
2021/03/10 23:32:04;;;;;;;18.98;8.07;;;4.20;58.10;;;;;;4881935;29;20048;-84
2021/03/10 23:41:53;;;;;;;17.10;7.60;;;4.20;58.10;;;;;;4882009;29;20104;-84
2021/03/10 23:47:42;;;;;;;17.60;7.75;;;4.20;58.10;;;;;;4881870;29;20048;-83
2021/03/10 23:53:31;;;;;;;19.13;8.52;;;4.20;58.10;;;;;;4881634;29;20036;-82
2021/03/10 23:59:19;;;;;;;16.77;7.63;;;4.20;58.20;;;;;;4881827;29;20060;-85
